sensor_id;sensor_type;location;lat;lon;timestamp;pressure;altitude;pressure_sealevel;temperature;humidity
67517;BME280;68821;59.134;37.894;2023-04-07T00:02:00;101564.03;;;0.27;56.60
67517;BME280;68821;59.134;37.894;2023-04-07T00:04:26;101557.72;;;0.22;56.70
67517;BME280;68821;59.134;37.894;2023-04-07T00:06:52;101559.25;;;0.20;56.71
67517;BME280;68821;59.134;37.894;2023-04-07T00:09:18;101556.72;;;0.20;56.93
67517;BME280;68821;59.134;37.894;2023-04-07T00:11:44;101560.91;;;0.19;56.74
67517;BME280;68821;59.134;37.894;2023-04-07T00:14:10;101558.38;;;0.19;56.91
67517;BME280;68821;59.134;37.894;2023-04-07T00:16:36;101567.50;;;0.17;56.97
67517;BME280;68821;59.134;37.894;2023-04-07T00:19:02;101562.22;;;0.14;56.98
67517;BME280;68821;59.134;37.894;2023-04-07T00:21:28;101573.84;;;0.12;56.93
67517;BME280;68821;59.134;37.894;2023-04-07T00:23:54;101551.88;;;0.01;57.02
67517;BME280;68821;59.134;37.894;2023-04-07T00:26:21;101568.53;;;0.09;57.04
67517;BME280;68821;59.134;37.894;2023-04-07T00:28:47;101574.25;;;0.07;57.18
67517;BME280;68821;59.134;37.894;2023-04-07T00:31:13;101562.78;;;0.00;57.36
67517;BME280;68821;59.134;37.894;2023-04-07T00:33:40;101566.06;;;-0.01;57.17
67517;BME280;68821;59.134;37.894;2023-04-07T00:36:06;101568.72;;;0.01;57.16
67517;BME280;68821;59.134;37.894;2023-04-07T00:38:32;101563.53;;;-0.01;57.68
67517;BME280;68821;59.134;37.894;2023-04-07T00:40:58;101569.38;;;-0.02;57.49
67517;BME280;68821;59.134;37.894;2023-04-07T00:43:25;101567.59;;;-0.03;57.16
67517;BME280;68821;59.134;37.894;2023-04-07T00:45:52;101565.84;;;-0.04;57.34
67517;BME280;68821;59.134;37.894;2023-04-07T00:48:19;101560.53;;;-0.07;57.54
67517;BME280;68821;59.134;37.894;2023-04-07T00:50:46;101554.47;;;-0.09;57.40
67517;BME280;68821;59.134;37.894;2023-04-07T00:53:12;101569.63;;;-0.09;57.38
67517;BME280;68821;59.134;37.894;2023-04-07T00:55:38;101562.69;;;-0.12;57.48
67517;BME280;68821;59.134;37.894;2023-04-07T00:58:04;101559.81;;;-0.16;57.34
67517;BME280;68821;59.134;37.894;2023-04-07T01:00:35;101561.34;;;-0.18;57.59
67517;BME280;68821;59.134;37.894;2023-04-07T01:03:09;101561.34;;;-0.18;57.77
67517;BME280;68821;59.134;37.894;2023-04-07T01:05:57;101574.59;;;-0.21;57.36
67517;BME280;68821;59.134;37.894;2023-04-07T01:13:45;101564.41;;;-0.33;57.26
67517;BME280;68821;59.134;37.894;2023-04-07T01:16:18;101576.13;;;-0.33;57.50
67517;BME280;68821;59.134;37.894;2023-04-07T01:18:47;101573.50;;;-0.35;57.41
67517;BME280;68821;59.134;37.894;2023-04-07T01:21:17;101572.50;;;-0.37;57.32
67517;BME280;68821;59.134;37.894;2023-04-07T01:26:34;101563.31;;;-0.47;57.47
67517;BME280;68821;59.134;37.894;2023-04-07T01:31:54;101572.75;;;-0.44;57.61
67517;BME280;68821;59.134;37.894;2023-04-07T01:34:23;101576.81;;;-0.46;57.50
67517;BME280;68821;59.134;37.894;2023-04-07T01:36:50;101578.47;;;-0.47;58.04
67517;BME280;68821;59.134;37.894;2023-04-07T01:39:17;101569.09;;;-0.48;58.17
67517;BME280;68821;59.134;37.894;2023-04-07T01:41:44;101568.88;;;-0.51;57.64
67517;BME280;68821;59.134;37.894;2023-04-07T01:44:11;101573.13;;;-0.50;58.06
67517;BME280;68821;59.134;37.894;2023-04-07T01:46:38;101576.31;;;-0.52;57.80
67517;BME280;68821;59.134;37.894;2023-04-07T01:49:05;101575.31;;;-0.54;57.93
67517;BME280;68821;59.134;37.894;2023-04-07T01:51:32;101575.31;;;-0.54;57.78
67517;BME280;68821;59.134;37.894;2023-04-07T01:54:00;101572.41;;;-0.59;58.15
67517;BME280;68821;59.134;37.894;2023-04-07T01:56:27;101575.59;;;-0.62;58.11
67517;BME280;68821;59.134;37.894;2023-04-07T01:58:53;101570.41;;;-0.63;57.97
67517;BME280;68821;59.134;37.894;2023-04-07T02:01:19;101577.97;;;-0.63;58.25
67517;BME280;68821;59.134;37.894;2023-04-07T02:03:46;101575.44;;;-0.63;58.16
67517;BME280;68821;59.134;37.894;2023-04-07T02:06:18;101582.03;;;-0.65;57.95
67517;BME280;68821;59.134;37.894;2023-04-07T02:08:49;101585.28;;;-0.66;58.62
67517;BME280;68821;59.134;37.894;2023-04-07T02:11:19;101581.75;;;-0.68;58.24
67517;BME280;68821;59.134;37.894;2023-04-07T02:13:46;101581.53;;;-0.71;58.16
67517;BME280;68821;59.134;37.894;2023-04-07T02:16:12;101581.38;;;-0.73;58.42
67517;BME280;68821;59.134;37.894;2023-04-07T02:18:40;101576.09;;;-0.76;58.63
67517;BME280;68821;59.134;37.894;2023-04-07T02:21:08;101574.19;;;-0.78;58.34
67517;BME280;68821;59.134;37.894;2023-04-07T02:23:36;101564.38;;;-0.86;58.24
67517;BME280;68821;59.134;37.894;2023-04-07T02:26:02;101575.59;;;-0.82;58.54
67517;BME280;68821;59.134;37.894;2023-04-07T02:28:28;101576.34;;;-0.83;58.45
67517;BME280;68821;59.134;37.894;2023-04-07T02:30:54;101581.53;;;-0.82;58.10
67517;BME280;68821;59.134;37.894;2023-04-07T02:33:20;101589.09;;;-0.82;58.59
67517;BME280;68821;59.134;37.894;2023-04-07T02:35:46;101581.78;;;-0.89;58.58
67517;BME280;68821;59.134;37.894;2023-04-07T02:38:12;101589.59;;;-0.86;58.58
67517;BME280;68821;59.134;37.894;2023-04-07T02:40:38;101590.34;;;-0.87;58.39
67517;BME280;68821;59.134;37.894;2023-04-07T02:43:05;101593.78;;;-0.86;58.49
67517;BME280;68821;59.134;37.894;2023-04-07T02:45:31;101579.50;;;-0.96;58.84
67517;BME280;68821;59.134;37.894;2023-04-07T02:47:57;101592.78;;;-0.88;58.76
67517;BME280;68821;59.134;37.894;2023-04-07T02:50:23;101592.13;;;-0.86;58.81
67517;BME280;68821;59.134;37.894;2023-04-07T02:52:50;101592.00;;;-0.87;58.44
67517;BME280;68821;59.134;37.894;2023-04-07T02:55:17;101591.34;;;-0.85;58.92
67517;BME280;68821;59.134;37.894;2023-04-07T02:57:43;101593.78;;;-0.86;58.83
67517;BME280;68821;59.134;37.894;2023-04-07T03:00:09;101590.47;;;-0.85;59.27
67517;BME280;68821;59.134;37.894;2023-04-07T03:02:35;101602.47;;;-0.83;59.41
67517;BME280;68821;59.134;37.894;2023-04-07T03:05:01;101606.63;;;-0.83;58.63
67517;BME280;68821;59.134;37.894;2023-04-07T03:07:29;101601.59;;;-0.83;59.00
67517;BME280;68821;59.134;37.894;2023-04-07T03:09:56;101601.72;;;-0.82;58.98
67517;BME280;68821;59.134;37.894;2023-04-07T03:12:22;101605.91;;;-0.82;59.08
67517;BME280;68821;59.134;37.894;2023-04-07T03:14:48;101599.94;;;-0.83;59.31
67517;BME280;68821;59.134;37.894;2023-04-07T03:17:14;101608.78;;;-0.77;59.08
67517;BME280;68821;59.134;37.894;2023-04-07T03:19:40;101619.13;;;-0.74;58.99
67517;BME280;68821;59.134;37.894;2023-04-07T03:22:06;101610.69;;;-0.75;59.29
67517;BME280;68821;59.134;37.894;2023-04-07T03:24:32;101604.13;;;-0.73;59.13
67517;BME280;68821;59.134;37.894;2023-04-07T03:26:58;101617.09;;;-0.68;59.01
67517;BME280;68821;59.134;37.894;2023-04-07T03:29:24;101612.19;;;-0.67;58.85
67517;BME280;68821;59.134;37.894;2023-04-07T03:31:50;101620.78;;;-0.65;58.99
67517;BME280;68821;59.134;37.894;2023-04-07T03:34:16;101613.84;;;-0.67;58.83
67517;BME280;68821;59.134;37.894;2023-04-07T03:36:42;101614.59;;;-0.68;59.14
67517;BME280;68821;59.134;37.894;2023-04-07T03:39:08;101619.25;;;-0.63;59.02
67517;BME280;68821;59.134;37.894;2023-04-07T03:41:34;101620.13;;;-0.62;58.79
67517;BME280;68821;59.134;37.894;2023-04-07T03:44:01;101612.69;;;-0.61;58.74
67517;BME280;68821;59.134;37.894;2023-04-07T03:46:27;101617.09;;;-0.58;59.18
67517;BME280;68821;59.134;37.894;2023-04-07T03:48:53;101620.13;;;-0.52;58.64
67517;BME280;68821;59.134;37.894;2023-04-07T03:51:19;101616.84;;;-0.51;58.99
67517;BME280;68821;59.134;37.894;2023-04-07T03:53:45;101613.31;;;-0.53;59.10
67517;BME280;68821;59.134;37.894;2023-04-07T03:56:11;101609.41;;;-0.49;58.89
67517;BME280;68821;59.134;37.894;2023-04-07T03:58:38;101620.09;;;-0.42;58.65
67517;BME280;68821;59.134;37.894;2023-04-07T04:01:07;101620.50;;;-0.37;59.12
67517;BME280;68821;59.134;37.894;2023-04-07T04:03:34;101620.88;;;-0.32;59.11
67517;BME280;68821;59.134;37.894;2023-04-07T04:06:00;101624.41;;;-0.30;59.10
67517;BME280;68821;59.134;37.894;2023-04-07T04:08:26;101616.47;;;-0.35;58.73
67517;BME280;68821;59.134;37.894;2023-04-07T04:10:52;101626.78;;;-0.22;58.71
67517;BME280;68821;59.134;37.894;2023-04-07T04:13:18;101626.13;;;-0.19;58.82
67517;BME280;68821;59.134;37.894;2023-04-07T04:15:44;101618.94;;;-0.14;58.96
67517;BME280;68821;59.134;37.894;2023-04-07T04:18:10;101618.81;;;-0.16;58.87
67517;BME280;68821;59.134;37.894;2023-04-07T04:20:37;101627.13;;;-0.07;58.90
67517;BME280;68821;59.134;37.894;2023-04-07T04:23:06;101625.59;;;-0.05;58.68
67517;BME280;68821;59.134;37.894;2023-04-07T04:25:32;101631.25;;;0.03;58.43
67517;BME280;68821;59.134;37.894;2023-04-07T04:27:58;101628.00;;;0.04;58.68
67517;BME280;68821;59.134;37.894;2023-04-07T04:30:24;101630.00;;;0.08;58.69
67517;BME280;68821;59.134;37.894;2023-04-07T04:32:50;101637.16;;;0.14;58.61
67517;BME280;68821;59.134;37.894;2023-04-07T04:35:17;101638.56;;;0.21;58.60
67517;BME280;68821;59.134;37.894;2023-04-07T04:37:43;101615.69;;;0.09;58.39
67517;BME280;68821;59.134;37.894;2023-04-07T04:40:09;101640.66;;;0.26;58.55
67517;BME280;68821;59.134;37.894;2023-04-07T04:42:36;101645.31;;;0.32;58.26
67517;BME280;68821;59.134;37.894;2023-04-07T04:45:02;101638.22;;;0.38;58.32
67517;BME280;68821;59.134;37.894;2023-04-07T04:47:28;101641.09;;;0.43;58.25
67517;BME280;68821;59.134;37.894;2023-04-07T04:49:55;101648.41;;;0.50;58.13
67517;BME280;68821;59.134;37.894;2023-04-07T04:52:21;101641.69;;;0.50;58.13
67517;BME280;68821;59.134;37.894;2023-04-07T04:54:47;101644.69;;;0.56;58.13
67517;BME280;68821;59.134;37.894;2023-04-07T04:57:13;101641.75;;;0.62;58.17
67517;BME280;68821;59.134;37.894;2023-04-07T04:59:40;101648.19;;;0.69;58.12
67517;BME280;68821;59.134;37.894;2023-04-07T05:02:07;101639.19;;;0.72;57.87
67517;BME280;68821;59.134;37.894;2023-04-07T05:04:33;101642.31;;;0.80;57.72
67517;BME280;68821;59.134;37.894;2023-04-07T05:06:59;101647.59;;;0.83;57.87
67517;BME280;68821;59.134;37.894;2023-04-07T05:09:25;101649.84;;;0.90;57.56
67517;BME280;68821;59.134;37.894;2023-04-07T05:11:52;101639.72;;;0.90;57.38
67517;BME280;68821;59.134;37.894;2023-04-07T05:14:17;101647.13;;;0.99;57.90
67517;BME280;68821;59.134;37.894;2023-04-07T05:16:44;101646.69;;;1.05;57.67
67517;BME280;68821;59.134;37.894;2023-04-07T05:19:10;101639.56;;;1.11;57.15
67517;BME280;68821;59.134;37.894;2023-04-07T05:21:36;101640.66;;;1.14;57.57
67517;BME280;68821;59.134;37.894;2023-04-07T05:24:02;101635.28;;;1.22;57.05
67517;BME280;68821;59.134;37.894;2023-04-07T05:26:28;101637.41;;;1.27;57.42
67517;BME280;68821;59.134;37.894;2023-04-07T05:28:54;101642.03;;;1.33;57.36
67517;BME280;68821;59.134;37.894;2023-04-07T05:31:20;101647.00;;;1.43;57.31
67517;BME280;68821;59.134;37.894;2023-04-07T05:33:46;101644.84;;;1.48;57.50
67517;BME280;68821;59.134;37.894;2023-04-07T05:36:12;101646.50;;;1.59;57.45
67517;BME280;68821;59.134;37.894;2023-04-07T05:38:38;101640.13;;;1.64;57.01
67517;BME280;68821;59.134;37.894;2023-04-07T05:41:05;101644.97;;;1.73;57.12
67517;BME280;68821;59.134;37.894;2023-04-07T05:43:31;101642.09;;;1.80;56.92
67517;BME280;68821;59.134;37.894;2023-04-07T05:45:57;101645.31;;;1.89;57.04
67517;BME280;68821;59.134;37.894;2023-04-07T05:48:23;101647.31;;;1.93;56.70
67517;BME280;68821;59.134;37.894;2023-04-07T05:50:49;101646.19;;;2.01;57.12
67517;BME280;68821;59.134;37.894;2023-04-07T05:53:15;101648.19;;;2.06;56.63
67517;BME280;68821;59.134;37.894;2023-04-07T05:55:42;101648.75;;;2.13;56.43
67517;BME280;68821;59.134;37.894;2023-04-07T05:58:08;101650.91;;;2.20;56.76
67517;BME280;68821;59.134;37.894;2023-04-07T06:00:34;101648.81;;;2.27;56.54
67517;BME280;68821;59.134;37.894;2023-04-07T06:03:00;101651.78;;;2.33;56.10
67517;BME280;68821;59.134;37.894;2023-04-07T06:05:28;101648.13;;;2.41;56.30
67517;BME280;68821;59.134;37.894;2023-04-07T06:07:54;101641.06;;;2.49;56.51
67517;BME280;68821;59.134;37.894;2023-04-07T06:10:20;101639.06;;;2.56;55.77
67517;BME280;68821;59.134;37.894;2023-04-07T06:12:46;101632.75;;;2.63;56.20
67517;BME280;68821;59.134;37.894;2023-04-07T06:15:12;101636.59;;;2.70;56.00
67517;BME280;68821;59.134;37.894;2023-04-07T06:17:38;101631.06;;;2.75;55.41
67517;BME280;68821;59.134;37.894;2023-04-07T06:20:04;101636.00;;;2.86;55.48
67517;BME280;68821;59.134;37.894;2023-04-07T06:22:31;101640.50;;;2.90;55.25
67517;BME280;68821;59.134;37.894;2023-04-07T06:24:57;101633.28;;;2.96;55.08
67517;BME280;68821;59.134;37.894;2023-04-07T06:27:23;101644.63;;;3.01;55.35
67517;BME280;68821;59.134;37.894;2023-04-07T06:29:49;101639.09;;;3.07;55.41
67517;BME280;68821;59.134;37.894;2023-04-07T06:32:15;101642.91;;;3.13;55.13
67517;BME280;68821;59.134;37.894;2023-04-07T06:34:42;101632.69;;;3.12;55.17
67517;BME280;68821;59.134;37.894;2023-04-07T06:37:08;101643.97;;;3.29;55.36
67517;BME280;68821;59.134;37.894;2023-04-07T06:39:34;101642.81;;;3.37;54.94
67517;BME280;68821;59.134;37.894;2023-04-07T06:42:00;101641.75;;;3.47;55.21
67517;BME280;68821;59.134;37.894;2023-04-07T06:44:26;101649.00;;;3.54;54.87
67517;BME280;68821;59.134;37.894;2023-04-07T06:46:52;101632.75;;;3.52;54.73
67517;BME280;68821;59.134;37.894;2023-04-07T06:49:20;101649.03;;;3.67;54.38
67517;BME280;68821;59.134;37.894;2023-04-07T06:51:46;101648.53;;;3.73;54.06
67517;BME280;68821;59.134;37.894;2023-04-07T06:54:12;101647.06;;;3.76;54.20
67517;BME280;68821;59.134;37.894;2023-04-07T06:56:40;101648.28;;;3.81;53.69
67517;BME280;68821;59.134;37.894;2023-04-07T06:59:07;101640.06;;;3.86;53.62
67517;BME280;68821;59.134;37.894;2023-04-07T07:01:33;101639.47;;;3.90;53.57
67517;BME280;68821;59.134;37.894;2023-04-07T07:03:59;101642.28;;;3.94;53.78
67517;BME280;68821;59.134;37.894;2023-04-07T07:06:28;101640.72;;;3.96;53.78
67517;BME280;68821;59.134;37.894;2023-04-07T07:08:54;101627.13;;;3.96;53.49
67517;BME280;68821;59.134;37.894;2023-04-07T07:11:20;101638.16;;;4.10;53.65
67517;BME280;68821;59.134;37.894;2023-04-07T07:13:46;101642.88;;;4.17;53.47
67517;BME280;68821;59.134;37.894;2023-04-07T07:16:12;101635.72;;;4.25;53.36
67517;BME280;68821;59.134;37.894;2023-04-07T07:18:38;101643.94;;;4.34;53.13
67517;BME280;68821;59.134;37.894;2023-04-07T07:21:04;101646.25;;;4.44;52.79
67517;BME280;68821;59.134;37.894;2023-04-07T07:23:30;101640.84;;;4.53;52.51
67517;BME280;68821;59.134;37.894;2023-04-07T07:25:56;101642.13;;;4.59;52.52
67517;BME280;68821;59.134;37.894;2023-04-07T07:28:22;101640.84;;;4.66;52.32
67517;BME280;68821;59.134;37.894;2023-04-07T07:30:49;101638.28;;;4.66;52.14
67517;BME280;68821;59.134;37.894;2023-04-07T07:33:15;101635.50;;;4.76;51.80
67517;BME280;68821;59.134;37.894;2023-04-07T07:35:41;101648.63;;;4.82;51.51
67517;BME280;68821;59.134;37.894;2023-04-07T07:38:07;101649.75;;;4.88;51.51
67517;BME280;68821;59.134;37.894;2023-04-07T07:40:33;101651.63;;;4.90;51.67
67517;BME280;68821;59.134;37.894;2023-04-07T07:42:59;101648.56;;;4.96;51.36
67517;BME280;68821;59.134;37.894;2023-04-07T07:45:25;101628.78;;;4.92;51.33
67517;BME280;68821;59.134;37.894;2023-04-07T07:47:52;101650.78;;;5.04;51.26
67517;BME280;68821;59.134;37.894;2023-04-07T07:50:18;101641.75;;;5.10;51.65
67517;BME280;68821;59.134;37.894;2023-04-07T07:52:44;101638.78;;;5.17;51.03
67517;BME280;68821;59.134;37.894;2023-04-07T07:55:11;101626.72;;;5.14;50.85
67517;BME280;68821;59.134;37.894;2023-04-07T07:57:37;101644.50;;;5.28;50.50
67517;BME280;68821;59.134;37.894;2023-04-07T08:00:03;101650.94;;;5.36;50.71
67517;BME280;68821;59.134;37.894;2023-04-07T08:02:29;101641.19;;;5.43;51.03
67517;BME280;68821;59.134;37.894;2023-04-07T08:04:57;101641.34;;;5.47;50.71
67517;BME280;68821;59.134;37.894;2023-04-07T08:07:23;101641.59;;;5.51;50.40
67517;BME280;68821;59.134;37.894;2023-04-07T08:09:49;101646.09;;;5.55;50.10
67517;BME280;68821;59.134;37.894;2023-04-07T08:12:15;101637.75;;;5.58;50.13
67517;BME280;68821;59.134;37.894;2023-04-07T08:14:41;101644.00;;;5.63;49.98
67517;BME280;68821;59.134;37.894;2023-04-07T08:17:07;101648.81;;;5.73;50.18
67517;BME280;68821;59.134;37.894;2023-04-07T08:19:33;101634.31;;;5.72;49.47
67517;BME280;68821;59.134;37.894;2023-04-07T08:21:59;101636.41;;;5.79;49.33
67517;BME280;68821;59.134;37.894;2023-04-07T08:24:26;101634.06;;;5.82;50.02
67517;BME280;68821;59.134;37.894;2023-04-07T08:26:52;101637.56;;;5.84;50.00
67517;BME280;68821;59.134;37.894;2023-04-07T08:29:18;101629.28;;;5.89;49.64
67517;BME280;68821;59.134;37.894;2023-04-07T08:31:44;101635.34;;;5.91;49.45
67517;BME280;68821;59.134;37.894;2023-04-07T08:34:11;101643.41;;;5.97;49.55
67517;BME280;68821;59.134;37.894;2023-04-07T08:36:38;101639.41;;;6.02;49.14
67517;BME280;68821;59.134;37.894;2023-04-07T08:39:04;101633.69;;;6.06;48.68
67517;BME280;68821;59.134;37.894;2023-04-07T08:41:36;101643.16;;;6.09;49.00
67517;BME280;68821;59.134;37.894;2023-04-07T08:44:03;101632.44;;;6.14;48.80
67517;BME280;68821;59.134;37.894;2023-04-07T08:46:29;101640.34;;;6.19;49.33
67517;BME280;68821;59.134;37.894;2023-04-07T08:48:56;101627.03;;;6.24;49.32
67517;BME280;68821;59.134;37.894;2023-04-07T08:51:30;101623.84;;;6.29;48.96
67517;BME280;68821;59.134;37.894;2023-04-07T08:54:12;101635.25;;;6.35;47.89
67517;BME280;68821;59.134;37.894;2023-04-07T08:56:40;101627.88;;;6.40;48.79
67517;BME280;68821;59.134;37.894;2023-04-07T08:59:09;101628.03;;;6.43;47.73
67517;BME280;68821;59.134;37.894;2023-04-07T09:01:36;101631.78;;;6.50;48.10
67517;BME280;68821;59.134;37.894;2023-04-07T09:04:03;101637.31;;;6.57;48.14
67517;BME280;68821;59.134;37.894;2023-04-07T09:06:30;101628.22;;;6.62;47.38
67517;BME280;68821;59.134;37.894;2023-04-07T09:08:57;101637.81;;;6.67;48.00
67517;BME280;68821;59.134;37.894;2023-04-07T09:11:24;101632.84;;;6.70;48.44
67517;BME280;68821;59.134;37.894;2023-04-07T09:13:50;101628.88;;;6.75;48.08
67517;BME280;68821;59.134;37.894;2023-04-07T09:16:17;101627.50;;;6.81;47.56
67517;BME280;68821;59.134;37.894;2023-04-07T09:18:43;101619.28;;;6.87;48.22
67517;BME280;68821;59.134;37.894;2023-04-07T09:21:09;101610.34;;;6.95;47.93
67517;BME280;68821;59.134;37.894;2023-04-07T09:23:41;101623.50;;;7.03;47.03
67517;BME280;68821;59.134;37.894;2023-04-07T09:26:23;101620.38;;;7.09;47.09
67517;BME280;68821;59.134;37.894;2023-04-07T09:28:56;101621.56;;;7.15;46.84
67517;BME280;68821;59.134;37.894;2023-04-07T09:31:23;101608.22;;;7.21;46.79
67517;BME280;68821;59.134;37.894;2023-04-07T09:36:48;101618.50;;;7.39;46.51
67517;BME280;68821;59.134;37.894;2023-04-07T09:39:14;101607.91;;;7.49;46.13
67517;BME280;68821;59.134;37.894;2023-04-07T09:41:40;101608.94;;;7.89;45.92
67517;BME280;68821;59.134;37.894;2023-04-07T09:44:07;101600.75;;;9.10;44.48
67517;BME280;68821;59.134;37.894;2023-04-07T09:46:33;101598.75;;;10.77;43.48
67517;BME280;68821;59.134;37.894;2023-04-07T09:49:02;101589.38;;;12.37;41.11
67517;BME280;68821;59.134;37.894;2023-04-07T09:51:31;101585.50;;;14.26;39.90
67517;BME280;68821;59.134;37.894;2023-04-07T09:53:58;101578.59;;;16.27;38.94
67517;BME280;68821;59.134;37.894;2023-04-07T09:56:25;101574.22;;;18.10;37.46
67517;BME280;68821;59.134;37.894;2023-04-07T09:58:54;101573.69;;;19.82;35.85
67517;BME280;68821;59.134;37.894;2023-04-07T10:01:21;101571.28;;;21.16;34.33
67517;BME280;68821;59.134;37.894;2023-04-07T10:03:47;101579.03;;;22.17;32.99
67517;BME280;68821;59.134;37.894;2023-04-07T10:06:15;101564.72;;;23.09;31.67
67517;BME280;68821;59.134;37.894;2023-04-07T10:08:42;101574.66;;;23.91;29.91
67517;BME280;68821;59.134;37.894;2023-04-07T10:11:09;101569.66;;;24.64;29.16
67517;BME280;68821;59.134;37.894;2023-04-07T10:13:38;101558.66;;;25.91;27.61
67517;BME280;68821;59.134;37.894;2023-04-07T10:16:05;101555.72;;;27.42;26.64
67517;BME280;68821;59.134;37.894;2023-04-07T10:18:34;101553.56;;;28.72;25.15
67517;BME280;68821;59.134;37.894;2023-04-07T10:21:03;101554.78;;;29.68;23.58
67517;BME280;68821;59.134;37.894;2023-04-07T10:26:19;101550.81;;;31.27;21.97
67517;BME280;68821;59.134;37.894;2023-04-07T10:28:51;101545.97;;;32.04;21.46
67517;BME280;68821;59.134;37.894;2023-04-07T10:31:19;101552.81;;;32.08;20.51
67517;BME280;68821;59.134;37.894;2023-04-07T10:33:48;101549.50;;;32.20;19.79
67517;BME280;68821;59.134;37.894;2023-04-07T10:36:16;101546.97;;;32.01;19.84
67517;BME280;68821;59.134;37.894;2023-04-07T10:41:38;101546.06;;;32.18;18.94
67517;BME280;68821;59.134;37.894;2023-04-07T10:44:05;101544.38;;;31.66;18.77
67517;BME280;68821;59.134;37.894;2023-04-07T10:49:12;101548.88;;;32.31;18.63
67517;BME280;68821;59.134;37.894;2023-04-07T10:51:38;101543.69;;;33.06;18.03
67517;BME280;68821;59.134;37.894;2023-04-07T10:54:21;101531.13;;;33.38;17.41
67517;BME280;68821;59.134;37.894;2023-04-07T10:57:11;101536.44;;;32.94;17.59
67517;BME280;68821;59.134;37.894;2023-04-07T11:02:34;101535.56;;;32.63;17.65
67517;BME280;68821;59.134;37.894;2023-04-07T11:05:00;101533.13;;;32.90;17.05
67517;BME280;68821;59.134;37.894;2023-04-07T11:07:50;101533.13;;;33.35;16.97
67517;BME280;68821;59.134;37.894;2023-04-07T11:10:17;101535.84;;;33.63;17.10
67517;BME280;68821;59.134;37.894;2023-04-07T11:12:57;101529.16;;;33.56;16.33
67517;BME280;68821;59.134;37.894;2023-04-07T11:15:23;101530.97;;;33.41;16.57
67517;BME280;68821;59.134;37.894;2023-04-07T11:18:20;101525.03;;;33.06;16.57
67517;BME280;68821;59.134;37.894;2023-04-07T11:20:53;101522.59;;;32.57;16.56
67517;BME280;68821;59.134;37.894;2023-04-07T11:23:21;101522.47;;;31.95;16.89
67517;BME280;68821;59.134;37.894;2023-04-07T11:25:49;101522.31;;;31.48;16.97
67517;BME280;68821;59.134;37.894;2023-04-07T11:28:16;101522.75;;;31.39;16.88
67517;BME280;68821;59.134;37.894;2023-04-07T11:30:50;101521.38;;;31.32;17.20
67517;BME280;68821;59.134;37.894;2023-04-07T11:33:18;101519.03;;;31.26;16.87
67517;BME280;68821;59.134;37.894;2023-04-07T11:35:49;101498.69;;;30.73;16.68
67517;BME280;68821;59.134;37.894;2023-04-07T11:38:16;101518.47;;;30.10;17.67
67517;BME280;68821;59.134;37.894;2023-04-07T11:40:43;101513.19;;;29.09;17.96
67517;BME280;68821;59.134;37.894;2023-04-07T11:45:46;101507.88;;;27.99;18.41
67517;BME280;68821;59.134;37.894;2023-04-07T11:48:28;101506.16;;;27.98;18.76
67517;BME280;68821;59.134;37.894;2023-04-07T11:50:55;101499.81;;;28.47;18.07
67517;BME280;68821;59.134;37.894;2023-04-07T11:53:29;101491.75;;;28.73;17.71
67517;BME280;68821;59.134;37.894;2023-04-07T11:58:35;101505.97;;;28.02;18.20
67517;BME280;68821;59.134;37.894;2023-04-07T12:01:05;101496.56;;;27.95;17.87
67517;BME280;68821;59.134;37.894;2023-04-07T12:03:34;101484.16;;;27.48;18.86
67517;BME280;68821;59.134;37.894;2023-04-07T12:06:02;101492.13;;;27.22;18.52
67517;BME280;68821;59.134;37.894;2023-04-07T12:08:42;101485.56;;;26.54;19.03
67517;BME280;68821;59.134;37.894;2023-04-07T12:11:09;101501.53;;;25.91;19.60
67517;BME280;68821;59.134;37.894;2023-04-07T12:13:36;101491.53;;;25.04;19.79
67517;BME280;68821;59.134;37.894;2023-04-07T12:16:03;101489.06;;;24.23;20.10
67517;BME280;68821;59.134;37.894;2023-04-07T12:18:29;101482.69;;;23.47;20.22
67517;BME280;68821;59.134;37.894;2023-04-07T12:20:55;101485.44;;;23.41;20.73
67517;BME280;68821;59.134;37.894;2023-04-07T12:23:22;101479.78;;;24.08;20.60
67517;BME280;68821;59.134;37.894;2023-04-07T12:25:48;101475.38;;;24.85;20.20
67517;BME280;68821;59.134;37.894;2023-04-07T12:28:14;101475.84;;;25.01;19.87
67517;BME280;68821;59.134;37.894;2023-04-07T12:30:40;101469.09;;;24.55;20.31
67517;BME280;68821;59.134;37.894;2023-04-07T12:33:06;101466.56;;;24.09;20.64
67517;BME280;68821;59.134;37.894;2023-04-07T12:35:32;101469.56;;;24.33;20.57
67517;BME280;68821;59.134;37.894;2023-04-07T12:37:59;101466.28;;;24.23;20.25
67517;BME280;68821;59.134;37.894;2023-04-07T12:40:25;101468.22;;;24.14;20.66
67517;BME280;68821;59.134;37.894;2023-04-07T12:42:51;101465.75;;;23.64;21.16
67517;BME280;68821;59.134;37.894;2023-04-07T12:45:17;101449.38;;;23.53;21.29
67517;BME280;68821;59.134;37.894;2023-04-07T12:47:43;101460.06;;;24.27;20.73
67517;BME280;68821;59.134;37.894;2023-04-07T12:50:09;101461.88;;;24.99;20.46
67517;BME280;68821;59.134;37.894;2023-04-07T12:52:36;101453.78;;;25.06;19.90
67517;BME280;68821;59.134;37.894;2023-04-07T12:55:02;101461.13;;;24.58;20.15
67517;BME280;68821;59.134;37.894;2023-04-07T12:57:28;101457.03;;;24.05;20.55
67517;BME280;68821;59.134;37.894;2023-04-07T12:59:54;101452.91;;;23.50;20.81
67517;BME280;68821;59.134;37.894;2023-04-07T13:02:20;101453.59;;;23.13;20.81
67517;BME280;68821;59.134;37.894;2023-04-07T13:04:46;101457.22;;;23.07;20.88
67517;BME280;68821;59.134;37.894;2023-04-07T13:07:13;101447.28;;;23.23;21.12
67517;BME280;68821;59.134;37.894;2023-04-07T13:09:39;101450.47;;;23.84;20.80
67517;BME280;68821;59.134;37.894;2023-04-07T13:12:09;101448.22;;;24.47;20.19
67517;BME280;68821;59.134;37.894;2023-04-07T13:14:37;101448.88;;;24.57;20.00
67517;BME280;68821;59.134;37.894;2023-04-07T13:17:04;101446.47;;;24.46;19.66